Time;durP1;ratioP1;P1;durP2;ratioP2;P2;SDS_P1;SDS_P2;PMS_P1;PMS_P2;Temp;Humidity;BMP_temperature;BMP_pressure;BME280_temperature;BME280_humidity;BME280_pressure;Samples;Min_cycle;Max_cycle;Signal;HPM_P1;HPM_P2
2022/05/22 00:00:14;;;;;;;0.55;0.55;;;23.50;43.40;;;-147.20;100.00;58430.41;5094828;28;20101;-19
2022/05/22 00:02:42;;;;;;;0.50;0.50;;;23.50;43.40;;;-147.20;100.00;58430.41;5095166;28;20047;-18
2022/05/22 00:05:18;;;;;;;0.82;0.55;;;23.50;43.40;;;-147.20;100.00;58430.41;5094872;28;20091;-18
2022/05/22 00:07:46;;;;;;;0.40;0.40;;;23.50;43.40;;;-147.20;100.00;58430.41;5095042;28;20055;-18
2022/05/22 00:10:13;;;;;;;0.80;0.60;;;23.50;43.40;;;-147.20;100.00;58430.41;5094980;28;20054;-18
2022/05/22 00:12:40;;;;;;;0.43;0.43;;;23.50;43.40;;;-147.20;100.00;58430.41;5095024;28;20131;-18
2022/05/22 00:15:06;;;;;;;0.50;0.50;;;23.50;43.40;;;-147.20;100.00;58430.41;5094681;28;20538;-18
2022/05/22 00:17:32;;;;;;;0.40;0.30;;;23.50;43.50;;;-147.20;100.00;58430.41;5094717;28;20063;-17
2022/05/22 00:19:58;;;;;;;0.73;0.60;;;23.50;43.40;;;-147.20;100.00;58430.41;5094952;28;20048;-18
2022/05/22 00:22:24;;;;;;;0.50;0.50;;;23.50;43.50;;;-147.20;100.00;58430.41;5094618;28;20048;-18
2022/05/22 00:24:50;;;;;;;0.60;0.50;;;23.50;43.50;;;-147.20;100.00;58430.41;5094902;28;20047;-18
2022/05/22 00:27:16;;;;;;;0.40;0.40;;;23.50;43.40;;;-147.20;100.00;58430.41;5077038;28;20044;-18
2022/05/22 00:29:42;;;;;;;0.50;0.50;;;23.40;43.40;;;-147.20;100.00;58430.41;5094429;28;20079;-18
2022/05/22 00:32:09;;;;;;;0.65;0.50;;;23.50;43.50;;;-147.20;100.00;58430.41;5094849;28;20372;-18
2022/05/22 00:34:36;;;;;;;1.40;0.60;;;23.50;43.50;;;-147.20;100.00;58430.41;5094422;28;20048;-18
2022/05/22 00:37:03;;;;;;;0.60;0.50;;;23.50;43.50;;;-147.20;100.00;58430.41;5094770;28;20073;-18
2022/05/22 00:39:29;;;;;;;0.77;0.52;;;23.40;43.40;;;-147.20;100.00;58430.41;5074639;28;20484;-18
2022/05/22 00:41:57;;;;;;;0.40;0.40;;;23.40;43.40;;;-147.20;100.00;58430.41;5094567;28;20139;-18
2022/05/22 00:44:23;;;;;;;0.52;0.52;;;23.40;43.40;;;-147.20;100.00;58430.41;5094571;28;20047;-18
2022/05/22 00:46:50;;;;;;;0.47;0.40;;;23.40;43.40;;;-147.20;100.00;58430.41;5094604;28;20138;-18
2022/05/22 00:49:27;;;;;;;0.32;0.32;;;23.40;43.40;;;-147.20;100.00;58430.41;5094272;28;20070;-19
2022/05/22 00:52:05;;;;;;;0.57;0.50;;;23.50;43.50;;;-147.20;100.00;58430.41;5091785;28;20054;-18
2022/05/22 00:54:50;;;;;;;0.98;0.50;;;23.50;43.50;;;-147.20;100.00;58430.41;5094527;28;20084;-18
2022/05/22 00:57:20;;;;;;;0.50;0.50;;;23.40;43.40;;;-147.20;100.00;58430.41;5057505;28;20488;-18
2022/05/22 01:00:00;;;;;;;0.70;0.60;;;23.50;43.50;;;-147.20;100.00;58430.41;5094070;28;20050;-18
2022/05/22 01:03:26;;;;;;;0.50;0.50;;;23.50;43.50;;;-147.20;100.00;58430.41;5075587;28;20048;-18
2022/05/22 01:05:14;;;;;;;0.40;0.40;;;23.40;43.40;;;-147.20;100.00;58430.41;5093744;28;20048;-18
2022/05/22 01:07:40;;;;;;;1.15;0.40;;;23.40;43.40;;;-147.20;100.00;58430.41;5093851;28;20059;-18
2022/05/22 01:10:06;;;;;;;0.40;0.40;;;23.40;43.40;;;-147.20;100.00;58430.41;5076175;28;20045;-18
2022/05/22 01:12:31;;;;;;;0.50;0.50;;;23.40;43.40;;;-147.20;100.00;58430.41;5075524;28;20089;-18
2022/05/22 01:14:58;;;;;;;0.50;0.50;;;23.40;43.50;;;-147.20;100.00;58430.41;5058689;28;20044;-18
2022/05/22 01:17:24;;;;;;;0.40;0.40;;;23.40;43.40;;;-147.20;100.00;58430.41;5093660;28;20062;-19
2022/05/22 01:19:59;;;;;;;0.47;0.47;;;23.40;43.50;;;-147.20;100.00;58430.41;5092304;28;20097;-18
2022/05/22 01:22:27;;;;;;;0.47;0.40;;;23.40;44.00;;;-147.20;100.00;58430.41;5075547;28;20044;-18
2022/05/22 01:24:54;;;;;;;0.50;0.50;;;23.40;43.40;;;-147.20;100.00;58430.41;5076056;28;20476;-18
2022/05/22 01:27:22;;;;;;;0.40;0.40;;;23.40;43.40;;;-147.20;100.00;58430.41;5073439;28;20057;-18
2022/05/22 01:30:04;;;;;;;0.50;0.50;;;23.40;43.40;;;-147.20;100.00;58430.41;5093631;28;20051;-19
2022/05/22 01:32:34;;;;;;;0.68;0.68;;;23.40;43.40;;;-147.20;100.00;58430.41;5075636;28;20048;-18
2022/05/22 01:35:00;;;;;;;0.75;0.50;;;23.40;43.40;;;-147.20;100.00;58430.41;5074950;28;20131;-18
2022/05/22 01:37:27;;;;;;;0.52;0.50;;;23.40;43.40;;;-147.20;100.00;58430.41;5074475;28;20072;-17
2022/05/22 01:39:52;;;;;;;0.70;0.50;;;23.40;43.40;;;-147.20;100.00;58430.41;5075597;28;20503;-18
2022/05/22 01:42:18;;;;;;;1.08;0.65;;;23.40;43.50;;;-147.20;100.00;58430.41;5093274;28;20058;-18
2022/05/22 01:44:45;;;;;;;0.52;0.50;;;23.40;43.40;;;-147.20;100.00;58430.41;5075184;28;20369;-18
2022/05/22 01:47:10;;;;;;;0.40;0.40;;;23.40;43.50;;;-147.20;100.00;58430.41;5075108;28;20073;-18
2022/05/22 01:49:37;;;;;;;0.47;0.47;;;23.40;43.50;;;-147.20;100.00;58430.41;5093107;28;20075;-18
2022/05/22 01:52:05;;;;;;;0.50;0.50;;;23.40;43.50;;;-147.20;100.00;58430.41;5092073;28;20051;-18
2022/05/22 01:54:32;;;;;;;0.60;0.60;;;23.40;43.50;;;-147.20;100.00;58430.41;5074242;28;20048;-18
2022/05/22 01:56:58;;;;;;;0.80;0.55;;;23.40;43.50;;;-147.20;100.00;58430.41;5074912;28;20044;-16
2022/05/22 01:59:26;;;;;;;0.55;0.40;;;23.40;43.50;;;-147.20;100.00;58430.41;5074865;28;20138;-18
2022/05/22 02:01:55;;;;;;;;;;;23.40;43.50;;;-147.20;100.00;58430.41;5075606;28;20044;-19
2022/05/22 02:04:21;;;;;;;0.65;0.50;;;23.40;43.50;;;-147.20;100.00;58430.41;5074607;28;19977;-18
2022/05/22 02:09:32;;;;;;;0.63;0.63;;;23.40;43.50;;;-147.20;100.00;58430.41;5073079;28;20056;-19
2022/05/22 02:11:57;;;;;;;0.50;0.50;;;23.40;43.50;;;-147.20;100.00;58430.41;5092956;28;20376;-18
2022/05/22 02:14:23;;;;;;;0.82;0.60;;;23.40;43.50;;;-147.20;100.00;58430.41;5074701;28;20488;-19
2022/05/22 02:16:59;;;;;;;0.45;0.45;;;23.40;43.50;;;-147.20;100.00;58430.41;5073427;28;20036;-18
2022/05/22 02:19:25;;;;;;;0.52;0.52;;;23.30;43.50;;;-147.20;100.00;58430.41;5074509;28;20044;-18
2022/05/22 02:21:51;;;;;;;0.82;0.80;;;23.40;43.50;;;-147.20;100.00;58430.41;5074625;28;20121;-18
2022/05/22 02:24:17;;;;;;;0.52;0.52;;;23.40;43.50;;;-147.20;100.00;58430.41;5075107;28;20464;-17
2022/05/22 02:26:48;;;;;;;0.50;0.50;;;23.30;43.50;;;-147.20;100.00;58430.41;5075109;28;20047;-18
2022/05/22 02:29:15;;;;;;;0.40;0.40;;;23.40;43.50;;;-147.20;100.00;58430.41;5072890;28;20045;-18
2022/05/22 02:31:41;;;;;;;0.47;0.47;;;23.40;43.50;;;-147.20;100.00;58430.41;5091696;28;20050;-18
2022/05/22 02:34:06;;;;;;;0.50;0.50;;;23.30;43.50;;;-147.20;100.00;58430.41;5074363;28;20036;-18
2022/05/22 02:36:32;;;;;;;0.57;0.50;;;23.40;43.50;;;-147.20;100.00;58430.41;5092997;28;20105;-18
2022/05/22 02:38:58;;;;;;;0.60;0.60;;;23.30;43.50;;;-147.20;100.00;58430.41;5088482;28;20044;-18
2022/05/22 02:41:25;;;;;;;1.40;0.68;;;23.40;43.50;;;-147.20;100.00;58430.41;5091227;28;20070;-18
2022/05/22 02:43:54;;;;;;;0.60;0.60;;;23.30;43.50;;;-147.20;100.00;58430.41;5074816;28;20075;-18
2022/05/22 02:46:21;;;;;;;0.50;0.50;;;23.30;43.50;;;-147.20;100.00;58430.41;5074830;28;20044;-18
2022/05/22 02:48:51;;;;;;;0.95;0.52;;;23.30;43.50;;;-147.20;100.00;58430.41;5074600;28;20051;-19
2022/05/22 02:51:21;;;;;;;0.40;0.40;;;23.30;44.00;;;-147.20;100.00;58430.41;5092486;28;20083;-18
2022/05/22 02:53:47;;;;;;;0.50;0.50;;;23.30;43.50;;;-147.20;100.00;58430.41;5074493;28;20480;-18
2022/05/22 02:56:31;;;;;;;0.90;0.80;;;23.30;43.50;;;-147.20;100.00;58430.41;5092568;28;20082;-18
2022/05/22 02:58:58;;;;;;;0.50;0.50;;;23.30;43.50;;;-147.20;100.00;58430.41;5092871;28;20056;-18
2022/05/22 03:01:24;;;;;;;0.63;0.50;;;23.30;43.50;;;-147.20;100.00;58430.41;5090912;28;20048;-19
2022/05/22 03:03:51;;;;;;;0.55;0.40;;;23.30;43.50;;;-147.20;100.00;58430.41;5072745;28;20044;-18
2022/05/22 03:09:01;;;;;;;0.50;0.50;;;23.30;43.50;;;-147.20;100.00;58430.41;5092549;28;20040;-18
2022/05/22 03:11:27;;;;;;;0.50;0.40;;;23.30;43.50;;;-147.20;100.00;58430.41;5090804;28;20052;-18
2022/05/22 03:13:53;;;;;;;0.40;0.40;;;23.30;43.50;;;-147.20;100.00;58430.41;5091107;28;20044;-18
2022/05/22 03:16:19;;;;;;;0.63;0.60;;;23.30;43.50;;;-147.20;100.00;58430.41;5079121;28;20040;-18
2022/05/22 03:18:58;;;;;;;0.50;0.50;;;23.30;43.50;;;-147.20;100.00;58430.41;5075739;28;20067;-18
2022/05/22 03:21:24;;;;;;;0.57;0.55;;;23.30;43.50;;;-147.20;100.00;58430.41;5094916;28;20083;-18
2022/05/22 03:23:57;;;;;;;0.47;0.40;;;23.30;43.50;;;-147.20;100.00;58430.41;5077467;28;20076;-18
2022/05/22 03:26:23;;;;;;;0.50;0.50;;;23.30;43.50;;;-147.20;100.00;58430.41;5094160;28;20036;-18
2022/05/22 03:28:49;;;;;;;0.60;0.60;;;23.30;43.50;;;-147.20;100.00;58430.41;5095168;28;20040;-18
2022/05/22 03:31:16;;;;;;;0.40;0.40;;;23.30;43.50;;;-147.20;100.00;58430.41;5077633;28;20051;-18
2022/05/22 03:33:41;;;;;;;0.88;0.82;;;23.30;43.40;;;-147.20;100.00;58430.41;5077314;28;20044;-18
2022/05/22 03:36:08;;;;;;;0.50;0.50;;;23.30;43.40;;;-147.20;100.00;58430.41;5077110;28;20083;-18
2022/05/22 03:38:34;;;;;;;0.60;0.60;;;23.30;43.40;;;-147.20;100.00;58430.41;5076979;28;20438;-18
2022/05/22 03:41:04;;;;;;;0.40;0.40;;;23.30;43.40;;;-147.20;100.00;58430.41;5079161;28;20091;-18
2022/05/22 03:43:35;;;;;;;0.50;0.50;;;23.30;43.40;;;-147.20;100.00;58430.41;5077374;28;20404;-18
2022/05/22 03:46:01;;;;;;;0.47;0.47;;;23.30;43.40;;;-147.20;100.00;58430.41;5094398;28;20218;-18
2022/05/22 03:48:28;;;;;;;0.60;0.50;;;23.30;43.40;;;-147.20;100.00;58430.41;5075489;28;20052;-18
2022/05/22 03:50:54;;;;;;;0.50;0.50;;;23.30;43.40;;;-147.20;100.00;58430.41;5094013;28;20048;-18
2022/05/22 03:53:23;;;;;;;0.60;0.60;;;23.30;43.40;;;-147.20;100.00;58430.41;5077444;28;20050;-18
2022/05/22 03:55:50;;;;;;;0.45;0.45;;;23.30;43.40;;;-147.20;100.00;58430.41;5077086;28;20536;-18
2022/05/22 03:58:17;;;;;;;0.57;0.55;;;23.30;43.40;;;-147.20;100.00;58430.41;5075626;28;20052;-18
2022/05/22 04:00:44;;;;;;;0.40;0.40;;;23.30;43.40;;;-147.20;100.00;58430.41;5073564;28;20094;-18
2022/05/22 04:03:10;;;;;;;0.63;0.50;;;23.30;43.40;;;-147.20;100.00;58430.41;5076726;28;20059;-18
2022/05/22 04:05:36;;;;;;;0.82;0.50;;;23.30;43.40;;;-147.20;100.00;58430.41;5076623;28;20048;-18
2022/05/22 04:08:04;;;;;;;0.52;0.40;;;23.30;43.40;;;-147.20;100.00;58430.41;5075473;28;20048;-18
2022/05/22 04:10:43;;;;;;;0.50;0.50;;;23.30;43.40;;;-147.20;100.00;58430.41;5062513;28;20082;-18
2022/05/22 04:13:09;;;;;;;0.75;0.50;;;23.30;43.30;;;-147.20;100.00;58430.41;5095022;28;20048;-19
2022/05/22 04:15:35;;;;;;;0.50;0.50;;;23.40;43.40;;;-147.20;100.00;58430.41;5076485;28;20488;-18
2022/05/22 04:18:03;;;;;;;0.50;0.50;;;23.40;43.40;;;-147.20;100.00;58430.41;5077151;28;20052;-18
2022/05/22 04:20:33;;;;;;;0.82;0.50;;;23.30;43.30;;;-147.20;100.00;58430.41;5074810;28;20484;-19
2022/05/22 04:26:13;;;;;;;0.63;0.50;;;23.40;43.30;;;-147.20;100.00;58430.41;5076090;28;20513;-18
2022/05/22 04:28:39;;;;;;;0.47;0.47;;;23.40;43.30;;;-147.20;100.00;58430.41;5075434;28;20041;-18
2022/05/22 04:31:11;;;;;;;0.52;0.45;;;23.40;43.30;;;-147.20;100.00;58430.41;5093086;28;20446;-19
2022/05/22 04:33:57;;;;;;;0.93;0.60;;;23.40;43.30;;;-147.20;100.00;58430.41;5094463;28;20064;-18
2022/05/22 04:36:23;;;;;;;0.47;0.47;;;23.40;43.30;;;-147.20;100.00;58430.41;5093016;28;20048;-18
2022/05/22 04:38:48;;;;;;;0.50;0.45;;;23.40;43.30;;;-147.20;100.00;58430.41;5076135;28;20040;-18
2022/05/22 04:41:16;;;;;;;0.55;0.50;;;23.40;43.20;;;-147.20;100.00;58430.41;5093038;28;20090;-20
2022/05/22 04:43:42;;;;;;;0.52;0.50;;;23.40;43.20;;;-147.20;100.00;58430.41;5076138;28;20052;-19
2022/05/22 04:46:08;;;;;;;0.73;0.50;;;23.40;43.20;;;-147.20;100.00;58430.41;5076627;28;20040;-17
2022/05/22 04:48:34;;;;;;;0.82;0.50;;;23.40;43.20;;;-147.20;100.00;58430.41;5074230;28;20041;-18
2022/05/22 04:51:04;;;;;;;0.50;0.50;;;23.40;43.20;;;-147.20;100.00;58430.41;5072625;28;20377;-19
2022/05/22 04:53:33;;;;;;;0.55;0.47;;;23.40;43.20;;;-147.20;100.00;58430.41;5072214;28;20131;-18
2022/05/22 04:56:14;;;;;;;0.40;0.40;;;23.40;43.20;;;-147.20;100.00;58430.41;5061457;28;20036;-19
2022/05/22 04:58:54;;;;;;;0.50;0.50;;;23.40;43.20;;;-147.20;100.00;58430.41;5091448;28;20040;-18
2022/05/22 05:01:22;;;;;;;0.50;0.50;;;23.40;43.20;;;-147.20;100.00;58430.41;5094068;28;20044;-18
2022/05/22 05:04:01;;;;;;;0.68;0.50;;;23.40;43.20;;;-147.20;100.00;58430.41;5075438;28;20044;-19
2022/05/22 05:06:30;;;;;;;0.50;0.50;;;23.40;43.20;;;-147.20;100.00;58430.41;5074830;28;20079;-19
2022/05/22 05:08:58;;;;;;;0.40;0.40;;;23.40;43.10;;;-147.20;100.00;58430.41;5075451;28;20048;-18
2022/05/22 05:11:30;;;;;;;0.80;0.60;;;23.40;43.10;;;-147.20;100.00;58430.41;5076155;28;20480;-18
2022/05/22 05:14:01;;;;;;;0.50;0.50;;;23.40;43.10;;;-147.20;100.00;58430.41;5075598;28;20143;-18
2022/05/22 05:16:29;;;;;;;0.40;0.40;;;23.40;43.10;;;-147.20;100.00;58430.41;5092435;28;20495;-18
2022/05/22 05:19:01;;;;;;;0.40;0.40;;;23.40;43.10;;;-147.20;100.00;58430.41;5075523;28;20055;-18
2022/05/22 05:21:28;;;;;;;0.40;0.40;;;23.50;43.10;;;-147.20;100.00;58430.41;5092387;28;20083;-18
2022/05/22 05:23:57;;;;;;;0.60;0.60;;;23.40;43.10;;;-147.20;100.00;58430.41;5074673;28;20051;-18
2022/05/22 05:26:25;;;;;;;0.50;0.50;;;23.40;43.10;;;-147.20;100.00;58430.41;5075386;28;20044;-18
2022/05/22 05:28:53;;;;;;;0.50;0.40;;;23.40;43.10;;;-147.20;100.00;58430.41;5075881;28;20048;-19
2022/05/22 05:31:27;;;;;;;0.47;0.40;;;23.40;43.10;;;-147.20;100.00;58430.41;5092199;28;20086;-19
2022/05/22 05:33:53;;;;;;;0.40;0.40;;;23.40;43.10;;;-147.20;100.00;58430.41;5093605;28;20044;-18
2022/05/22 05:36:41;;;;;;;0.82;0.60;;;23.40;43.10;;;-147.20;100.00;58430.41;5075792;28;20361;-18
2022/05/22 05:39:35;;;;;;;0.60;0.50;;;23.50;43.70;;;-147.20;100.00;58430.41;5088267;28;20067;-18
2022/05/22 05:42:16;;;;;;;0.50;0.50;;;23.40;43.00;;;-147.20;100.00;58430.41;5060569;28;20098;-18
2022/05/22 05:44:42;;;;;;;0.40;0.40;;;23.40;43.10;;;-147.20;100.00;58430.41;5093912;28;20076;-18
2022/05/22 05:47:15;;;;;;;0.35;0.35;;;23.40;43.10;;;-147.20;100.00;58430.41;5075793;28;20075;-18
2022/05/22 05:50:00;;;;;;;0.68;0.50;;;23.50;43.10;;;-147.20;100.00;58430.41;5093452;28;20525;-19
2022/05/22 05:52:32;;;;;;;0.55;0.40;;;23.40;43.00;;;-147.20;100.00;58430.41;5073966;28;20060;-18
2022/05/22 05:55:01;;;;;;;0.70;0.60;;;23.40;43.00;;;-147.20;100.00;58430.41;5073818;28;20087;-18
2022/05/22 05:57:44;;;;;;;0.40;0.40;;;23.50;43.00;;;-147.20;100.00;58430.41;5074971;28;20032;-18
2022/05/22 06:00:14;;;;;;;0.52;0.52;;;23.50;43.00;;;-147.20;100.00;58430.41;5074271;28;20062;-18
2022/05/22 06:02:43;;;;;;;0.45;0.43;;;23.50;43.00;;;-147.20;100.00;58430.41;5074482;28;20048;-18
2022/05/22 06:05:11;;;;;;;0.88;0.50;;;23.50;42.90;;;-147.20;100.00;58430.41;5092805;28;20377;-18
2022/05/22 06:07:37;;;;;;;0.57;0.50;;;23.50;42.90;;;-147.20;100.00;58430.41;5073279;28;20044;-18
2022/05/22 06:10:10;;;;;;;0.40;0.40;;;23.50;42.90;;;-147.20;100.00;58430.41;5072678;28;20044;-18
2022/05/22 06:12:46;;;;;;;0.30;0.30;;;23.50;42.80;;;-147.20;100.00;58430.41;5093003;28;20051;-18
2022/05/22 06:15:14;;;;;;;0.65;0.50;;;23.50;42.80;;;-147.20;100.00;58430.41;5092931;28;20044;-18
2022/05/22 06:17:44;;;;;;;0.98;0.50;;;23.50;42.80;;;-147.20;100.00;58430.41;5092350;28;20048;-18
2022/05/22 06:20:17;;;;;;;0.50;0.50;;;23.60;42.80;;;-147.20;100.00;58430.41;5075181;28;20514;-18
2022/05/22 06:22:46;;;;;;;0.50;0.50;;;23.60;42.80;;;-147.20;100.00;58430.41;5072979;28;20048;-18
2022/05/22 06:25:34;;;;;;;0.45;0.45;;;23.60;42.90;;;-147.20;100.00;58430.41;5050930;28;20131;-18
2022/05/22 06:28:20;;;;;;;0.50;0.50;;;23.50;42.80;;;-147.20;100.00;58430.41;5091898;28;20476;-19
2022/05/22 06:31:05;;;;;;;0.40;0.40;;;23.60;42.80;;;-147.20;100.00;58430.41;5091639;28;20076;-18
2022/05/22 06:33:45;;;;;;;0.60;0.60;;;23.60;42.80;;;-147.20;100.00;58430.41;5074093;28;20121;-18
2022/05/22 06:36:20;;;;;;;0.43;0.40;;;23.60;42.80;;;-147.20;100.00;58430.41;5092773;28;20055;-18
2022/05/22 06:41:52;;;;;;;0.50;0.50;;;23.60;42.70;;;-147.20;100.00;58430.41;5092703;28;20399;-19
2022/05/22 06:44:38;;;;;;;0.47;0.47;;;23.60;42.70;;;-147.20;100.00;58430.41;5092514;28;20055;-18
2022/05/22 06:47:35;;;;;;;0.45;0.45;;;23.70;42.70;;;-147.20;100.00;58430.41;5074563;28;20044;-18
2022/05/22 06:50:25;;;;;;;0.40;0.40;;;23.70;42.60;;;-147.20;100.00;58430.41;5076776;28;20413;-18
2022/05/22 06:53:13;;;;;;;0.40;0.40;;;23.70;42.60;;;-147.20;100.00;58430.41;5078501;28;20032;-18
2022/05/22 06:55:57;;;;;;;0.68;0.50;;;23.70;42.50;;;-147.20;100.00;58430.41;5078498;28;20373;-18
2022/05/22 06:58:36;;;;;;;0.75;0.50;;;23.70;42.50;;;-147.20;100.00;58430.41;5096169;28;20056;-18
2022/05/22 07:01:21;;;;;;;0.40;0.40;;;23.70;42.50;;;-147.20;100.00;58430.41;5096369;28;20403;-18
2022/05/22 07:04:21;;;;;;;0.50;0.50;;;23.80;42.50;;;-147.20;100.00;58430.41;5077768;28;20040;-18
2022/05/22 07:06:56;;;;;;;1.77;0.50;;;23.80;42.40;;;-147.20;100.00;58430.41;5095925;28;20055;-18
2022/05/22 07:09:41;;;;;;;0.40;0.40;;;23.80;42.40;;;-147.20;100.00;58430.41;5096282;28;20047;-19
2022/05/22 07:12:16;;;;;;;0.55;0.50;;;23.80;42.40;;;-147.20;100.00;58430.41;5094729;28;20040;-18
2022/05/22 07:14:48;;;;;;;0.60;0.57;;;23.80;42.30;;;-147.20;100.00;58430.41;5094399;28;20052;-18
2022/05/22 07:17:23;;;;;;;0.73;0.52;;;23.80;42.30;;;-147.20;100.00;58430.41;5094399;28;20075;-18
2022/05/22 07:20:07;;;;;;;0.60;0.50;;;23.80;42.30;;;-147.20;100.00;58430.41;5094938;28;20085;-18
2022/05/22 07:23:00;;;;;;;0.40;0.40;;;23.80;42.30;;;-147.20;100.00;58430.41;5056504;28;20080;-18
2022/05/22 07:25:28;;;;;;;0.55;0.55;;;23.90;42.30;;;-147.20;100.00;58430.41;5094367;28;20052;-18
2022/05/22 07:28:10;;;;;;;0.45;0.43;;;23.90;42.30;;;-147.20;100.00;58430.41;5077236;28;20054;-18
2022/05/22 07:30:45;;;;;;;0.50;0.50;;;23.80;42.30;;;-147.20;100.00;58430.41;5095524;28;20055;-18
2022/05/22 07:33:35;;;;;;;0.60;0.60;;;23.90;42.20;;;-147.20;100.00;58430.41;5094296;28;20040;-18
2022/05/22 07:36:21;;;;;;;0.90;0.60;;;24.00;42.10;;;-147.20;100.00;58430.41;5094433;28;20083;-18
2022/05/22 07:39:06;;;;;;;0.50;0.50;;;24.10;41.80;;;-147.20;100.00;58430.41;5095652;28;20089;-18
2022/05/22 07:42:02;;;;;;;0.60;0.60;;;24.20;41.60;;;-147.20;100.00;58430.41;5077541;28;20044;-18
2022/05/22 07:44:40;;;;;;;0.30;0.30;;;24.40;41.60;;;-147.20;100.00;58430.41;5077384;28;20404;-18
2022/05/22 07:47:23;;;;;;;0.50;0.50;;;24.40;41.30;;;-147.20;100.00;58430.41;5088939;28;20503;-18
2022/05/22 07:50:20;;;;;;;0.63;0.40;;;24.50;41.20;;;-147.20;100.00;58430.41;5086791;28;20048;-18
2022/05/22 07:52:54;;;;;;;0.50;0.50;;;24.60;41.10;;;-147.20;100.00;58430.41;5093985;28;20109;-18
2022/05/22 07:55:41;;;;;;;0.40;0.40;;;24.50;41.20;;;-147.20;100.00;58430.41;5075563;28;20044;-18
2022/05/22 07:58:28;;;;;;;0.45;0.45;;;24.40;41.30;;;-147.20;100.00;58430.41;5076971;28;20058;-19
2022/05/22 08:01:03;;;;;;;0.63;0.50;;;24.30;41.50;;;-147.20;100.00;58430.41;5095079;28;20085;-18
2022/05/22 08:03:47;;;;;;;0.65;0.50;;;24.20;41.70;;;-147.20;100.00;58430.41;5095664;28;20046;-17
2022/05/22 08:06:34;;;;;;;0.85;0.60;;;24.10;41.80;;;-147.20;100.00;58430.41;5094974;28;20091;-18
2022/05/22 08:09:07;;;;;;;0.57;0.47;;;24.10;42.00;;;-147.20;100.00;58430.41;5076773;28;20048;-18
2022/05/22 08:11:34;;;;;;;0.60;0.60;;;24.00;42.00;;;-147.20;100.00;58430.41;5093469;28;20474;-18
2022/05/22 08:14:07;;;;;;;0.40;0.40;;;24.00;42.10;;;-147.20;100.00;58430.41;5093923;28;20048;-18
2022/05/22 08:16:36;;;;;;;0.50;0.50;;;24.00;42.10;;;-147.20;100.00;58430.41;5089754;28;20481;-18
2022/05/22 08:19:11;;;;;;;0.50;0.50;;;23.90;42.10;;;-147.20;100.00;58430.41;5076886;28;20044;-18
2022/05/22 08:21:53;;;;;;;0.68;0.50;;;23.90;42.00;;;-147.20;100.00;58430.41;5094019;28;20083;-18
2022/05/22 08:24:18;;;;;;;0.38;0.38;;;24.10;42.00;;;-147.20;100.00;58430.41;5076402;28;20044;-18
2022/05/22 08:26:45;;;;;;;0.50;0.50;;;24.20;41.80;;;-147.20;100.00;58430.41;5093255;28;20055;-18
2022/05/22 08:29:15;;;;;;;0.50;0.50;;;24.20;41.80;;;-147.20;100.00;58430.41;5084124;28;20139;-18
2022/05/22 08:31:43;;;;;;;0.75;0.70;;;24.10;41.70;;;-147.20;100.00;58430.41;5076812;28;20044;-18
2022/05/22 08:34:10;;;;;;;0.50;0.50;;;24.10;41.80;;;-147.20;100.00;58430.41;5076872;28;20093;-18
2022/05/22 08:36:36;;;;;;;0.40;0.40;;;24.20;41.70;;;-147.20;100.00;58430.41;5094458;28;20043;-18
2022/05/22 08:39:03;;;;;;;0.50;0.50;;;24.20;41.70;;;-147.20;100.00;58430.41;5094315;28;20403;-18
2022/05/22 08:41:42;;;;;;;0.60;0.60;;;24.20;41.80;;;-147.20;100.00;58430.41;5094710;28;20118;-19
2022/05/22 08:44:28;;;;;;;0.50;0.50;;;24.10;41.80;;;-147.20;100.00;58430.41;5076558;28;20052;-18
2022/05/22 08:47:20;;;;;;;0.50;0.50;;;24.10;41.90;;;-147.20;100.00;58430.41;5076509;28;20048;-18
2022/05/22 08:50:07;;;;;;;0.57;0.40;;;24.10;41.80;;;-147.20;100.00;58430.41;5094258;28;20047;-18
2022/05/22 08:53:20;;;;;;;0.40;0.40;;;24.10;41.80;;;-147.20;100.00;58430.41;5076062;28;20047;-18
2022/05/22 08:58:59;;;;;;;0.40;0.40;;;24.20;41.70;;;-147.20;100.00;58430.41;5094094;28;20127;-18
2022/05/22 09:01:49;;;;;;;0.45;0.45;;;24.20;41.80;;;-147.20;100.00;58430.41;5094157;28;20044;-18
2022/05/22 09:04:33;;;;;;;0.75;0.45;;;24.20;41.90;;;-147.20;100.00;58430.41;5094045;28;20043;-18
2022/05/22 09:07:24;;;;;;;0.90;0.75;;;24.10;41.80;;;-147.20;100.00;58430.41;5093947;28;20040;-18
2022/05/22 09:10:06;;;;;;;1.15;0.60;;;24.10;41.90;;;-147.20;100.00;58430.41;5093958;28;20059;-18
2022/05/22 09:13:16;;;;;;;0.52;0.50;;;24.10;41.90;;;-147.20;100.00;58430.41;5092641;28;20485;-18
2022/05/22 09:15:48;;;;;;;0.40;0.40;;;24.10;41.90;;;-147.20;100.00;58430.41;5076140;28;20162;-18
2022/05/22 09:18:35;;;;;;;0.35;0.35;;;24.10;41.90;;;-147.20;100.00;58430.41;5075747;28;20040;-18
2022/05/22 09:21:24;;;;;;;0.68;0.63;;;24.10;41.90;;;-147.20;100.00;58430.41;5093661;28;20547;-18
2022/05/22 09:24:01;;;;;;;0.50;0.50;;;24.10;42.00;;;-147.20;100.00;58430.41;5075909;28;20048;-18
2022/05/22 09:26:50;;;;;;;0.60;0.50;;;24.10;41.90;;;-147.20;100.00;58430.41;5094066;28;20050;-18
2022/05/22 09:29:37;;;;;;;0.43;0.40;;;24.10;41.90;;;-147.20;100.00;58430.41;5073730;28;20109;-18
2022/05/22 09:32:16;;;;;;;0.40;0.40;;;24.10;42.00;;;-147.20;100.00;58430.41;5093494;28;20055;-18
2022/05/22 09:34:55;;;;;;;0.30;0.30;;;24.00;42.00;;;-147.20;100.00;58430.41;5093874;28;20464;-18
2022/05/22 09:38:08;;;;;;;0.50;0.50;;;24.00;42.00;;;-147.20;100.00;58430.41;5093775;28;20063;-18
2022/05/22 09:40:48;;;;;;;0.70;0.60;;;24.00;42.10;;;-147.20;100.00;58430.41;5093400;28;20147;-18
2022/05/22 09:43:44;;;;;;;0.60;0.50;;;24.00;42.10;;;-147.20;100.00;58430.41;5093751;28;20403;-18
2022/05/22 09:47:24;;;;;;;0.43;0.43;;;24.00;42.10;;;-147.20;100.00;58430.41;5093372;28;20052;-18
2022/05/22 09:50:10;;;;;;;0.50;0.50;;;24.00;42.00;;;-147.20;100.00;58430.41;5073424;28;20114;-18
2022/05/22 09:52:48;;;;;;;0.50;0.50;;;24.10;42.00;;;-147.20;100.00;58430.41;5093413;28;20056;-18
2022/05/22 09:55:42;;;;;;;0.65;0.50;;;24.10;41.90;;;-147.20;100.00;58430.41;5093199;28;20063;-18
2022/05/22 09:58:40;;;;;;;0.40;0.40;;;24.10;42.00;;;-147.20;100.00;58430.41;5093369;28;20052;-17
2022/05/22 10:01:14;;;;;;;0.40;0.40;;;24.10;41.90;;;-147.20;100.00;58430.41;5093787;28;20062;-18
2022/05/22 10:04:40;;;;;;;0.55;0.50;;;24.10;42.00;;;-147.20;100.00;58430.41;5075285;28;20051;-18
2022/05/22 10:07:55;;;;;;;0.40;0.40;;;24.00;42.00;;;-147.20;100.00;58430.41;5063869;28;20040;-18
2022/05/22 10:10:38;;;;;;;0.40;0.40;;;24.00;42.00;;;-147.20;100.00;58430.41;5030598;28;20513;-18
2022/05/22 10:13:38;;;;;;;0.65;0.65;;;24.00;42.00;;;-147.20;100.00;58430.41;5087445;28;20055;-18
2022/05/22 10:16:22;;;;;;;0.45;0.45;;;24.00;42.00;;;-147.20;100.00;58430.41;5074884;28;20036;-18
2022/05/22 10:19:35;;;;;;;0.50;0.50;;;24.10;42.00;;;-147.20;100.00;58430.41;5092724;28;20089;-18
2022/05/22 10:22:28;;;;;;;0.90;0.40;;;24.10;42.00;;;-147.20;100.00;58430.41;5073903;28;20491;-18
2022/05/22 10:25:17;;;;;;;0.40;0.40;;;24.10;41.90;;;-147.20;100.00;58430.41;5074372;28;20056;-18
2022/05/22 10:28:05;;;;;;;0.60;0.40;;;24.10;41.90;;;-147.20;100.00;58430.41;5092493;28;20079;-18
2022/05/22 10:30:41;;;;;;;0.40;0.40;;;24.10;41.90;;;-147.20;100.00;58430.41;5073346;28;20448;-18
2022/05/22 10:33:45;;;;;;;0.68;0.30;;;24.10;41.90;;;-147.20;100.00;58430.41;5074911;28;20090;-18
2022/05/22 10:36:23;;;;;;;0.40;0.40;;;24.10;41.80;;;-147.20;100.00;58430.41;5073213;28;20139;-18
2022/05/22 10:39:12;;;;;;;0.40;0.40;;;24.10;41.80;;;-147.20;100.00;58430.41;5073901;28;20400;-18
2022/05/22 10:44:50;;;;;;;1.08;0.50;;;24.10;41.80;;;-147.20;100.00;58430.41;5077569;28;20055;-18
2022/05/22 10:47:31;;;;;;;0.65;0.63;;;24.10;41.80;;;-147.20;100.00;58430.41;5092522;28;20085;-18
2022/05/22 10:49:59;;;;;;;0.57;0.40;;;24.10;41.80;;;-147.20;100.00;58430.41;5092429;28;20131;-18